Home > Products > Valid Products > TAF

000
FTUS46 KMFR 311100 RRA
TAFRBG
TAF
KRBG 311151Z 3112/0112 VRB02KT P6SM -SHRA SCT015 BKN035 OVC050
     FM312100 34006KT P6SM -SHRA SCT035 BKN050
     FM010300 35003KT P6SM BKN025
     FM010900 00000KT P6SM OVC012=



000
FTUS46 KMFR 311100 RRA
TAFOTH
TAF
KOTH 311151Z 3112/0112 17004KT P6SM -SHRA SCT011 BKN050
     FM312100 19010KT P6SM VCSH BKN040
     FM010200 VRB03KT P6SM SCT040=



000
FTUS46 KMFR 311100 RRA
TAFMFR
TAF
KMFR 311151Z 3112/0112 VRB03KT 3SM -SHRA BR SCT006 BKN040 OVC060
     FM311400 00000KT 5SM -SHRA BR SCT005 OVC035
     FM311700 29005KT P6SM -SHRA BKN035 OVC060
     FM312300 32003KT P6SM SCT035 OVC060
     FM010600 33002KT P6SM -SHRA BKN020 OVC030
     FM011000 00000KT P6SM VCSH OVC015=



000
FTUS46 KMFR 311100 RRA
TAFLMT
TAF
KLMT 311151Z 3112/0112 15010KT P6SM OVC080
     FM311500 19010KT P6SM -SHRA BKN025
     FM312100 33005KT P6SM -SHRA SCT025 BKN040
     FM010600 34008KT P6SM -SHRA BKN025 BKN040=



000
FTUS46 KMFR 310600 AAA
TAFRBG
TAF AMD
KRBG 310639Z 3107/0106 VRB02KT 3SM RA BR BKN004 BKN050
      TEMPO 3107/3111 P6SM NSW SCT004 BKN050
     FM311600 00000KT P6SM -RA SCT010 BKN025
     FM311800 00000KT P6SM -SHRA BKN035 OVC050
     FM312100 VRB03KT P6SM SCT035 BKN050=



000
FTUS46 KMFR 310500
TAFRBG
TAF
KRBG 310538Z 3106/0106 VRB02KT 3SM RA BR BKN004 OVC025
     FM311600 00000KT P6SM -RA SCT010 BKN025
     FM311800 00000KT P6SM -SHRA BKN035 OVC050
     FM312100 VRB03KT P6SM SCT035 BKN050=



000
FTUS46 KMFR 310500
TAFMFR
TAF
KMFR 310538Z 3106/0106 VRB03KT 3SM RA BR SCT006 OVC012
     FM311400 00000KT 5SM RA BR OVC020
     FM311700 29005KT P6SM -SHRA BKN035 OVC060
     FM312300 32003KT P6SM SCT035 OVC060=



000
FTUS46 KMFR 310500
TAFOTH
TAF
KOTH 310538Z 3106/0106 VRB03KT P6SM -RA OVC020
     FM310800 VRB03KT 5SM RA BR FEW005 OVC012
     FM311200 17004KT P6SM -SHRA BKN035 OVC050
     FM312100 21010KT P6SM VCSH BKN040
     FM010200 15006KT P6SM SCT040=



000
FTUS46 KMFR 310500
TAFLMT
TAF
KLMT 310538Z 3106/0106 20007KT P6SM SCT120 OVC200
     FM311000 19010KT P6SM OVC080
     FM311500 19010KT P6SM -RA BKN025
     FM312100 23012KT P6SM -SHRA SCT025 BKN040
     FM010000 27008KT P6SM -SHRA SCT025 BKN040=



000
FTUS46 KMFR 310200 AAA
TAFOTH
TAF AMD
KOTH 310202Z 3102/3124 00000KT P6SM BKN009 OVC012
     FM310500 21006KT 5SM RA BR FEW005 OVC012
     FM311200 17004KT P6SM -SHRA BKN035 OVC050
     FM312100 21010KT P6SM VCSH BKN040=



000
FTUS46 KMFR 310100 AAA
TAFLMT
TAF AMD
KLMT 310149Z 3102/3124 17020G25KT P6SM FEW120
     FM310700 19010KT P6SM OVC080
     FM311500 19010KT P6SM -RA BKN025
     FM312100 23012KT P6SM -SHRA SCT025 BKN040=



000
FTUS46 KMFR 310100 AAA
TAFLMT
TAF AMD
KLMT 310149Z 3102/3124 17020G25KT P6SM FEW120
     FM310700 19010KT P6SM OVC080
     FM311500 19010KT P6SM -RA BKN025
     FM312100 23012KT P6SM -SHRA SCT025 BKN040=



000
FTUS46 KMFR 302300
TAFLMT
TAF
KLMT 302339Z 3100/3124 13006KT P6SM SKC
     FM310700 19010KT P6SM OVC080
     FM311500 19010KT P6SM -RA BKN025
     FM312100 23012KT P6SM -SHRA SCT025 BKN040=



000
FTUS46 KMFR 302300
TAFMFR
TAF
KMFR 302339Z 3100/3124 02003KT P6SM SCT070 BKN100
     FM311400 00000KT 5SM RA BR OVC020
     FM311700 29005KT P6SM -SHRA BKN035 OVC060=



000
FTUS46 KMFR 302300
TAFRBG
TAF
KRBG 302339Z 3100/3124 05003KT 5SM -RA BR SCT024 BKN050 OVC080
     FM310600 00000KT 4SM -RA BR SCT015 OVC025
     FM310800 00000KT 4SM RA BR OVC010
     FM311600 00000KT P6SM -RA SCT010 BKN025
     FM311800 00000KT P6SM -SHRA BKN035 OVC050=



000
FTUS46 KMFR 302300
TAFOTH
TAF
KOTH 302339Z 3100/3124 19004KT P6SM BKN060
     FM310500 21006KT 5SM RA BR FEW005 OVC012
     FM311200 17004KT P6SM -SHRA BKN035 OVC050
     FM312100 21010KT P6SM VCSH BKN040=



000
FTUS46 KMFR 302200 AAB
TAFRBG
TAF AMD
KRBG 302240Z 3023/3118 00000KT 6SM HZ SCT060 OVC100
     FM310600 00000KT 4SM -RA BR SCT015 OVC025
     FM310800 00000KT 4SM RA BR OVC010
     FM311600 00000KT P6SM -RA SCT010 BKN025=



000
FTUS46 KMFR 302000 AAA
TAFOTH
TAF AMD
KOTH 302008Z 3020/3118 20011G17KT P6SM VCSH SCT020 BKN060
     FM302300 21009KT 6SM -RA BKN015 BKN025 OVC035
     FM310500 22006KT 5SM -RA BR FEW005 OVC012=



000
FTUS46 KMFR 302000 AAA
TAFMFR
TAF AMD
KMFR 302005Z 3020/3118 VRB03KT P6SM SCT007 BKN150
     FM310500 00000KT P6SM -RA OVC025
     FM311700 29005KT P6SM -SHRA BKN035 OVC060=



000
FTUS46 KMFR 301900 AAA
TAFRBG
TAF AMD
KRBG 301908Z 3019/3118 VRB03KT 6SM BR VCSH FEW008 SCT015 BKN100
     FM302100 VRB03KT 6SM -RA BR BKN012 OVC025
     FM310200 00000KT 4SM -RA BR SCT015 OVC025=



000
FTUS46 KMFR 301700 RRA
TAFOTH
TAF
KOTH 301741Z 3018/3118 20007KT P6SM SCT020 SCT035 BKN200
     FM301900 22007KT P6SM VCSH SCT015 BKN025 OVC035
     FM310000 21009KT 6SM -RA BKN015 BKN025 OVC035
     FM310500 22006KT 5SM -RA BR FEW005 OVC012=



000
FTUS46 KMFR 301700 RRA
TAFRBG
TAF
KRBG 301741Z 3018/3118 00000KT 3SM BR SCT002 BKN004 OVC008
     FM301900 VRB03KT 5SM -RA BR BKN008 OVC015
     FM302100 VRB03KT 6SM -RA BR BKN012 OVC025
     FM310200 00000KT 4SM -RA BR SCT015 OVC025=



000
FTUS46 KMFR 301700 RRA
TAFLMT
TAF
KLMT 301741Z 3018/3118 VRB03KT P6SM BKN150 OVC200
     FM302000 18011KT P6SM SCT150 BKN250
     FM310700 19005KT P6SM VCSH OVC050=



000
FTUS46 KMFR 301700 RRA
TAFOTH
TAF
KOTH 301741Z 3018/3118 20007KT P6SM SCT020 SCT035 BKN200
     FM301900 22007KT P6SM VCSH SCT015 BKN025 OVC035
     FM310000 21009KT 6SM -RA BKN015 BKN025 OVC035
     FM310500 22006KT 5SM -RA BR FEW005 OVC012=



000
FTUS46 KMFR 301700 RRA
TAFRBG
TAF
KRBG 301741Z 3018/3118 00000KT 3SM BR SCT002 BKN004 OVC008
     FM301900 VRB03KT 5SM -RA BR BKN008 OVC015
     FM302100 VRB03KT 6SM -RA BR BKN012 OVC025
     FM310200 00000KT 4SM -RA BR SCT015 OVC025=



000
FTUS46 KMFR 301700 RRA
TAFMFR
TAF
KMFR 301741Z 3018/3118 00000KT 6SM BR FEW002 OVC008
     FM302000 00000KT P6SM SCT007 BKN015
     FM302200 VRB04KT P6SM SCT040 BKN060 OVC100
     FM310500 00000KT P6SM OVC025=



000
FTUS46 KMFR 301700 RRA
TAFLMT
TAF
KLMT 301741Z 3018/3118 VRB03KT P6SM BKN150 OVC200
     FM302000 18011KT P6SM SCT150 BKN250
     FM310700 19005KT P6SM VCSH OVC050=



000
FTUS46 KMFR 301700 RRA
TAFMFR
TAF
KMFR 301741Z 3018/3118 00000KT 6SM BR FEW002 OVC008
     FM302000 00000KT P6SM SCT007 BKN015
     FM302200 VRB04KT P6SM SCT040 BKN060 OVC100
     FM310500 00000KT P6SM OVC025=



000
FTUS46 KMFR 301600 AAA
TAFOTH
TAF AMD
KOTH 301641Z 3017/3112 20007KT P6SM SCT020 SCT035 BKN200
     FM301900 22007KT P6SM VCSH SCT015 BKN025 OVC035
     FM310000 21009KT 6SM -RA BKN015 BKN025 OVC035
     FM310500 22006KT 5SM -RA BR FEW005 OVC012=



000
FTUS46 KMFR 301600 AAA
TAFOTH
TAF AMD
KOTH 301641Z 3017/3112 20007KT P6SM SCT020 SCT035 BKN200
     FM301900 22007KT P6SM VCSH SCT015 BKN025 OVC035
     FM310000 21009KT 6SM -RA BKN015 BKN025 OVC035
     FM310500 22006KT 5SM -RA BR FEW005 OVC012=



000
FTUS46 KMFR 301600 AAE
TAFLMT
TAF AMD
KLMT 301636Z 3017/3112 00000KT P6SM BCFG FEW001 BKN200
     FM301800 VRB03KT P6SM BKN150 OVC200
     FM302000 18011KT P6SM SCT150 BKN250
     FM310700 19005KT P6SM VCSH OVC050=



000
FTUS46 KMFR 301600 AAE
TAFLMT
TAF AMD
KLMT 301636Z 3017/3112 00000KT P6SM BCFG FEW001 BKN200
     FM301800 VRB03KT P6SM BKN150 OVC200
     FM302000 18011KT P6SM SCT150 BKN250
     FM310700 19005KT P6SM VCSH OVC050=



000
FTUS46 KMFR 301600 AAA
TAFRBG
TAF AMD
KRBG 301617Z 3016/3112 00000KT 1/4SM FG VV002
     FM301700 00000KT 1SM BR BKN002 OVC004
     FM301800 00000KT 3SM BR SCT004 OVC008
     FM301900 VRB03KT 5SM -RA BR BKN008 OVC015
     FM302100 VRB03KT 6SM -RA BR BKN012 OVC025
     FM310200 00000KT 4SM -RA BR SCT015 OVC025=



000
FTUS46 KMFR 301500 AAD
TAFLMT
TAF AMD
KLMT 301529Z 3015/3112 00000KT 1/4SM FG VV002
     FM301800 VRB03KT 3SM BR FEW002 BKN150
     FM302000 18011KT P6SM SCT150 BKN250
     FM310700 19005KT P6SM VCSH OVC050=



000
FTUS46 KMFR 301500 AAC
TAFLMT
TAF AMD
KLMT 301503Z 3015/3112 00000KT 1/2SM FG VV002
     FM301700 VRB03KT 3SM BR FEW002 BKN150
     FM301800 18011KT P6SM SCT150 BKN250
     FM310700 19005KT P6SM VCSH OVC050=



000
FTUS46 KMFR 301300 AAB
TAFLMT
TAF AMD
KLMT 301350Z 3014/3112 VRB02KT 1/4SM FG VV001
      TEMPO 3014/3015 1SM BR FEW002
     FM301500 15006KT 3SM BR FEW002 BKN150
     FM301700 18011KT P6SM SCT150 BKN250
     FM310700 19005KT P6SM VCSH OVC050=



000
FTUS46 KMFR 301300 AAA
TAFLMT
TAF AMD
KLMT 301314Z 3013/3112 VRB02KT 2SM BR FEW002 BKN150
      TEMPO 3013/3014 1SM BR VV002
     FM301400 15006KT 4SM BR FEW002 BKN150
     FM301500 18011KT P6SM SCT150 BKN250
     FM310700 19005KT P6SM VCSH OVC050=



000
FTUS46 KMFR 301100
TAFOTH
TAF
KOTH 301138Z 3012/3112 16005KT P6SM FEW025 OVC040
     FM301400 17008KT P6SM -SHRA BKN025 OVC035
     FM302000 22006KT P6SM -RA SCT015 BKN025 OVC035
     FM310500 22006KT 5SM -RA BR FEW005 OVC012=



000
FTUS46 KMFR 301100
TAFMFR
TAF
KMFR 301138Z 3012/3112 00000KT 6SM BR FEW002 OVC007
      TEMPO 3012/3014 3SM BR OVC002
     FM302000 00000KT P6SM SCT007 BKN015
     FM302200 VRB04KT P6SM BKN040
     FM310500 00000KT P6SM OVC025=



000
FTUS46 KMFR 301100
TAFLMT
TAF
KLMT 301138Z 3012/3112 VRB02KT 3/4SM BR FEW002 BKN150
      TEMPO 3012/3014 1/2SM FG VV002
     FM301400 15006KT P6SM BKN150
     FM302000 18011KT P6SM SCT150 BKN250
     FM310700 19005KT P6SM VCSH OVC050=



000
FTUS46 KMFR 301100
TAFRBG
TAF
KRBG 301138Z 3012/3112 00000KT 4SM BR BKN005 BKN120
     FM301600 00000KT 5SM BR SCT005 BKN120
     FM302200 29004KT 5SM -RA BR SCT020 OVC050
     FM310200 00000KT 4SM -RA BR SCT015 OVC025=



000
FTUS46 KMFR 301000 AAB
TAFMFR
TAF AMD
KMFR 301007Z 3010/3106 00000KT 4SM BR OVC005
     FM302000 00000KT P6SM SCT007 BKN015
     FM302200 VRB04KT P6SM BKN040
     FM310500 00000KT P6SM OVC025=



000
FTUS46 KMFR 301000 AAA
TAFLMT
TAF AMD
KLMT 301000Z 3010/3106 14003KT P6SM SCT150
     FM301200 VRB02KT 1SM BR BKN002 BKN150
     FM301500 15006KT P6SM BKN150
     FM302000 18011KT P6SM SCT150 BKN250=



000
FTUS46 KMFR 300800 AAA
TAFRBG
TAF AMD
KRBG 300846Z 3009/3106 34004KT 6SM BR SCT007 BKN080
     FM301200 00000KT 4SM BR SCT005 BKN025 OVC040
     FM301500 00000KT 5SM BR OVC005
     FM302100 00000KT P6SM SCT005 BKN035=



000
FTUS46 KMFR 300800 AAA
TAFOTH
TAF AMD
KOTH 300843Z 3009/3106 15005KT P6SM OVC050
     FM301200 16005KT P6SM BKN025 OVC050
     FM301500 17008KT P6SM -SHRA BKN012 OVC035
     FM302000 22006KT P6SM -RA SCT015 BKN025 OVC035
     FM310200 22006KT 5SM -RA BR FEW005 OVC012=



000
FTUS46 KMFR 300700 AAA
TAFMFR
TAF AMD
KMFR 300732Z 3008/3106 00000KT 1SM BR BKN012
      TEMPO 3008/3010 1/2SM FG BKN002 OVC012
     FM301000 00000KT 1/2SM FG OVC002
     FM301800 00000KT P6SM SCT007 BKN015
     FM302000 VRB04KT P6SM BKN040=



000
FTUS46 KMFR 300500 CCA
TAFMFR
TAF COR
KMFR 300539Z 3006/3106 00000KT 5SM BR SCT070 BKN100 OVC200
     FM300800 00000KT 5SM BR BKN012
     FM301200 00000KT 3SM BR OVC007
     FM301800 00000KT P6SM SCT007 BKN015
     FM302000 VRB04KT P6SM BKN040=



000
FTUS46 KMFR 300500
TAFRBG
TAF
KRBG 300538Z 3006/3106 00000KT P6SM -SHRA BKN060 OVC100
     FM300800 00000KT 4SM -SHRA BR SCT007 OVC015
     FM301000 00000KT 1SM BR OVC002
     FM301500 00000KT 5SM BR OVC005
     FM302100 00000KT P6SM SCT005 BKN035=



000
FTUS46 KMFR 300500
TAFLMT
TAF
KLMT 300538Z 3006/3106 14003KT P6SM SCT080 BKN150
     FM301000 VRB02KT 1SM BR BKN002 BKN150
     FM301500 15006KT P6SM BKN150
     FM302000 18011KT P6SM SCT150 BKN250=



000
FTUS46 KMFR 300500
TAFMFR
TAF
KMFR 300538Z 3006/3106 00000KT P6SM SCT070 BKN100 OVC200
     FM300800 00000KT P6SM BKN012
     FM301200 00000KT 5SM BR OVC007
     FM301800 00000KT P6SM SCT007 BKN015
     FM302000 VRB04KT P6SM BKN040=



000
FTUS46 KMFR 300500
TAFOTH
TAF
KOTH 300538Z 3006/3106 14004KT P6SM -RA BKN050 OVC100
     FM300800 15005KT 5SM -RA BR SCT007 OVC015
     FM302000 21010KT P6SM BKN025 OVC040
     FM310000 22006KT P6SM -RA SCT015 BKN025 OVC035=



000
FTUS46 KMFR 292300 RRA
TAFRBG
TAF
KRBG 292345Z 3000/3024 00000KT P6SM SKC
     FM300800 00000KT 4SM -RA BR SCT007 OVC015
     FM301000 00000KT 1SM BR OVC002
     FM301500 00000KT 5SM BR OVC005
     FM302100 00000KT P6SM SCT005 BKN035=



000
FTUS46 KMFR 292300 RRA
TAFMFR
TAF
KMFR 292345Z 3000/3024 35005KT P6SM SCT012 OVC110
     FM300800 00000KT P6SM BKN012
     FM301200 00000KT P6SM OVC007
     FM301800 00000KT P6SM SCT007 BKN015
     FM302000 VRB04KT P6SM BKN040=



000
FTUS46 KMFR 292300 RRA
TAFLMT
TAF
KLMT 292345Z 3000/3024 04003KT P6SM BKN090
     FM301000 VRB02KT 1SM BR BKN002 BKN150
     FM301500 VRB03KT P6SM BKN150=



000
FTUS46 KMFR 292300 RRA
TAFOTH
TAF
KOTH 292345Z 3000/3024 00000KT 5SM BR FEW019 FEW040 SCT060
     FM300800 15005KT 5SM -RA BR SCT007 OVC015
     FM302000 21010KT P6SM BKN025 OVC040=



000
FTUS46 KMFR 292000 AAA
TAFRBG
TAF AMD
KRBG 292003Z 2920/3018 31003KT P6SM OVC008
     FM292200 VRB03KT P6SM -SHRA SCT015 OVC050
     FM300800 00000KT 4SM -RA BR SCT007 OVC015
     FM301000 00000KT 1SM BR OVC002
     FM301500 00000KT 5SM BR OVC005=



000
FTUS46 KMFR 291700 RRA
TAFRBG
TAF
KRBG 291744Z 2918/3018 00000KT P6SM OVC005
     FM292000 00000KT P6SM -SHRA SCT005 OVC015
     FM292300 VRB03KT P6SM -SHRA SCT015 OVC050
     FM300800 00000KT 4SM -RA BR SCT007 OVC015
     FM301000 00000KT 1SM BR OVC002
     FM301500 00000KT 5SM BR OVC005=



000
FTUS46 KMFR 291700 RRA
TAFMFR
TAF
KMFR 291744Z 2918/3018 00000KT P6SM -RA BKN006 OVC015
     FM291900 VRB03KT P6SM -SHRA SCT008 BKN015 OVC050
     FM292000 VRB03KT P6SM VCSH SCT015 BKN050
     FM300300 VRB03KT P6SM BKN080 BKN150
     FM301200 00000KT P6SM OVC007=



000
FTUS46 KMFR 291700 RRA
TAFLMT
TAF
KLMT 291744Z 2918/3018 16007KT P6SM VCSH BKN060 OVC080
     FM292100 19007KT P6SM BKN080 BKN120
     FM301000 VRB02KT 1SM BR SCT002 BKN150
     FM301500 VRB03KT P6SM BKN150=



000
FTUS46 KMFR 291700 RRA
TAFOTH
TAF
KOTH 291744Z 2918/3018 16005KT P6SM SCT012 BKN050
     FM292000 24007KT P6SM -SHRA SCT020 BKN060
     FM300800 15005KT 5SM -RA BR SCT007 OVC015
     FM301200 16008KT 5SM BR SCT007 OVC015=



000
FTUS46 KMFR 291700 AAB
TAFLMT
TAF AMD
KLMT 291718Z 2917/3012 VRB03KT P6SM -SHRA BKN060 OVC100
     FM291800 16007KT P6SM VCSH BKN060 OVC080
     FM292100 19007KT P6SM BKN080 BKN120
     FM301000 VRB02KT 1SM BR SCT002=



000
FTUS46 KMFR 291700 AAA
TAFMFR
TAF AMD
KMFR 291713Z 2917/3012 00000KT P6SM -RA BKN006 OVC015
     FM291900 VRB03KT P6SM -SHRA SCT008 BKN015 OVC050
     FM292000 VRB03KT P6SM VCSH SCT015 BKN050
     FM300300 VRB03KT P6SM BKN080=



000
FTUS46 KMFR 291300 AAA
TAFOTH
TAF AMD
KOTH 291336Z 2914/3012 16005KT P6SM SCT012 BKN050
      TEMPO 2914/2916 BKN012 BKN050
     FM292000 21007KT P6SM SCT020 BKN060
     FM300800 15005KT 5SM BR SCT007 OVC020=



000
FTUS46 KMFR 291300 AAA
TAFLMT
TAF AMD
KLMT 291332Z 2914/3012 00000KT 2SM BR FEW002
      TEMPO 2914/2916 5SM BR FEW002
     FM291600 VRB03KT 5SM BR SCT030 BKN090
     FM291800 16007KT P6SM BKN060 OVC080
     FM301000 VRB02KT 1SM BR SCT002=



000
FTUS46 KMFR 291100 RRA
TAFOTH
TAF
KOTH 291143Z 2912/3012 16005KT P6SM OVC012
     FM291400 16005KT 5SM BR OVC008
     FM291800 16005KT P6SM FEW008 BKN015
     FM292200 21008KT P6SM OVC050
     FM300700 15005KT P6SM SCT007 OVC020=



000
FTUS46 KMFR 291100 RRA
TAFRBG
TAF
KRBG 291143Z 2912/3012 35003KT 1/2SM FG VV002
     FM291700 00000KT 3SM BR OVC005
     FM292000 00000KT 6SM BR OVC015
     FM292200 VRB03KT P6SM SCT015 OVC050
     FM300800 00000KT 1SM BR SCT002 OVC050=



000
FTUS46 KMFR 291100 RRA
TAFLMT
TAF
KLMT 291143Z 2912/3012 00000KT 1 1/2SM BR FEW002
      TEMPO 2912/2914 1/2SM FG VV001
     FM291600 VRB03KT 5SM BR SCT030 BKN090
     FM291800 16007KT P6SM BKN060 OVC080
     FM300900 VRB02KT 1SM BR SCT002=



000
FTUS46 KMFR 291100 RRA
TAFMFR
TAF
KMFR 291143Z 2912/3012 16003KT P6SM VCFG OVC007
     FM291700 00000KT 6SM -SHRA FEW003 BKN015 OVC040
     FM292000 VRB03KT P6SM VCSH SCT015 BKN050
     FM300300 VRB03KT P6SM BKN080=



000
FTUS46 KMFR 291000 AAB
TAFMFR
TAF AMD
KMFR 291026Z 2910/3006 19005KT P6SM OVC007
     FM291200 VRB02KT 4SM BR BKN003 OVC007
     FM291600 00000KT 6SM BR VCSH FEW003 BKN015 OVC040
     FM292100 VRB03KT P6SM SCT015 BKN050=



000
FTUS46 KMFR 291000 AAB
TAFMFR
TAF AMD
KMFR 291026Z 2910/3006 19005KT P6SM OVC007
     FM291200 VRB02KT 4SM BR BKN003 OVC007
     FM291600 00000KT 6SM BR VCSH FEW003 BKN015 OVC040
     FM292100 VRB03KT P6SM SCT015 BKN050=



000
FTUS46 KMFR 291000 AAC
TAFLMT
TAF AMD
KLMT 291023Z 2910/3006 00000KT 1SM BR VV002
     FM291300 00000KT 1/2SM FG VV001
     FM291600 VRB03KT 5SM BR SCT030 BKN090
     FM291800 16007KT P6SM BKN050 OVC080=



000
FTUS46 KMFR 291000 AAC
TAFLMT
TAF AMD
KLMT 291023Z 2910/3006 00000KT 1SM BR VV002
     FM291300 00000KT 1/2SM FG VV001
     FM291600 VRB03KT 5SM BR SCT030 BKN090
     FM291800 16007KT P6SM BKN050 OVC080=



000
FTUS46 KMFR 290900 AAB
TAFLMT
TAF AMD
KLMT 290916Z 2909/3006 00000KT 4SM BR FEW002 SCT050
      TEMPO 2909/2912 1SM BR BKN002
     FM291200 00000KT 1SM BR BKN002 BKN070
     FM291600 VRB03KT P6SM SCT030 BKN090=



000
FTUS46 KMFR 290800 AAA
TAFRBG
TAF AMD
KRBG 290859Z 2909/3006 VRB03KT 6SM BR BKN005 BKN060
     FM291200 00000KT 4SM BR OVC003
     FM291800 00000KT P6SM BKN015
     FM292000 VRB03KT P6SM SCT015 OVC050=



000
FTUS46 KMFR 290800 AAB
TAFOTH
TAF AMD
KOTH 290821Z 2908/3006 16005KT P6SM BKN014 OVC023
      TEMPO 2908/2910 SCT014 OVC023
     FM291200 16005KT 5SM BR OVC007
     FM291600 16005KT P6SM OVC015=



000
FTUS46 KMFR 290800 AAA
TAFMFR
TAF AMD
KMFR 290814Z 2908/3006 00000KT P6SM SCT009 BKN060
      TEMPO 2908/2909 6SM BR BKN009 BKN060
     FM291500 00000KT 4SM BR BKN003 OVC015
     FM292100 VRB03KT P6SM SCT015 BKN050=



000
FTUS46 KMFR 290800 AAA
TAFLMT
TAF AMD
KLMT 290808Z 2908/3006 00000KT 2SM BR FEW002 SCT050
      TEMPO 2908/2910 1SM BR BKN002
     FM291100 00000KT P6SM BKN030 OVC070
     FM291800 VRB03KT P6SM SCT030 BKN090=



000
FTUS46 KMFR 290700 AAA
TAFOTH
TAF AMD
KOTH 290711Z 2907/3006 16005KT P6SM OVC016
     FM291200 16005KT 5SM BR OVC007
     FM291600 16005KT P6SM OVC015=



000
FTUS46 KMFR 290500
TAFMFR
TAF
KMFR 290538Z 2906/3006 00000KT P6SM VCSH OVC040
     FM291500 00000KT 4SM BR BKN003 OVC015
     FM292100 VRB03KT P6SM SCT015 BKN050=



000
FTUS46 KMFR 290500
TAFLMT
TAF
KLMT 290538Z 2906/3006 00000KT P6SM VCSH BKN035 OVC050
     FM291100 00000KT P6SM BKN030 OVC070
     FM291800 VRB03KT P6SM SCT030 BKN090=



000
FTUS46 KMFR 290500
TAFOTH
TAF
KOTH 290538Z 2906/3006 17005KT P6SM BKN025 OVC060
     FM291200 16005KT 5SM BR OVC007
     FM291600 16005KT P6SM OVC015=



000
FTUS46 KMFR 290500
TAFRBG
TAF
KRBG 290538Z 2906/3006 VRB03KT P6SM -SHRA SCT025 OVC035
     FM291200 00000KT 4SM BR OVC003
     FM291800 00000KT P6SM BKN015
     FM292000 VRB03KT P6SM SCT015 OVC050=



000
FTUS46 KMFR 282300 RRA
TAFLMT
TAF
KLMT 282352Z 2900/2924 00000KT P6SM BKN060 BKN080
     FM291100 00000KT P6SM BKN030 OVC070
     FM291800 VRB03KT P6SM SCT030 BKN090=



000
FTUS46 KMFR 282300 RRA
TAFOTH
TAF
KOTH 282352Z 2900/2924 20015G19KT P6SM BKN017 OVC024
     FM290500 17006KT P6SM -SHRA OVC015
     FM291200 16005KT 5SM BR OVC007
     FM291600 16005KT P6SM OVC015=



000
FTUS46 KMFR 282300 RRA
TAFRBG
TAF
KRBG 282352Z 2900/2924 17006KT P6SM OVC045
     FM290700 00000KT P6SM -SHRA SCT020 OVC030
     FM291200 00000KT 4SM BR OVC003
     FM291800 00000KT P6SM BKN015
     FM292000 VRB03KT P6SM SCT015 OVC050=



000
FTUS46 KMFR 282300 RRA
TAFMFR
TAF
KMFR 282352Z 2900/2924 00000KT P6SM OVC060
     FM290700 34003KT P6SM -SHRA SCT030 OVC040
     FM291500 00000KT 4SM BR BKN003 OVC015
     FM292100 VRB03KT P6SM SCT015 BKN050=



000
FTUS46 KMFR 281700 RRA
TAFLMT
TAF
KLMT 281746Z 2818/2918 VRB03KT P6SM SCT060 SCT100
     FM281900 21012G20KT P6SM SCT040 OVC060
     FM290400 17007KT P6SM BKN040 OVC070=



000
FTUS46 KMFR 281700 RRA
TAFRBG
TAF
KRBG 281746Z 2818/2918 21006KT P6SM -RA BKN040 OVC070
     FM290200 21008G15KT P6SM -RA SCT020 OVC035
     FM290700 VRB02KT P6SM -SHRA SCT020 OVC030
     FM291200 00000KT 4SM BR OVC003=



000
FTUS46 KMFR 281700 RRA
TAFOTH
TAF
KOTH 281746Z 2818/2918 16010KT P6SM -RA SCT025 OVC035
     FM282000 22014G20KT P6SM -SHRA SCT015 OVC030
     FM290500 17006KT P6SM -SHRA OVC015
     FM291200 16005KT 5SM BR OVC007
     FM291600 16005KT P6SM OVC015=



000
FTUS46 KMFR 281700 RRA
TAFMFR
TAF
KMFR 281746Z 2818/2918 VRB03KT P6SM BKN100
     FM282300 34004KT P6SM -RA SCT040 OVC060
     FM290700 34003KT P6SM -SHRA SCT030 OVC040
     FM291500 00000KT 4SM BR BKN003 OVC015=



000
FTUS46 KMFR 281700 AAB
TAFMFR
TAF AMD
KMFR 281705Z 2817/2912 VRB03KT P6SM SCT003 SCT100
      TEMPO 2817/2818 5SM BR BKN003
     FM281800 VRB03KT P6SM BKN100
     FM282300 34004KT P6SM -RA SCT040 OVC060
     FM290700 34003KT P6SM -SHRA SCT030 OVC040=



    US Dept of Commerce
    National Oceanic and Atmospheric Administration
    National Weather Service
    1325 East West Highway
    Silver Spring, MD 20910
    Page Author: NWS Internet Services Team
Disclaimer
Information Quality
Credits
Glossary
Privacy Policy
Freedom of Information Act (FOIA)
About Us
Career Opportunities